createdAt,value
2018-07-15T00:00:13.826Z,20.60
2018-07-15T00:02:42.785Z,20.60
2018-07-15T00:05:11.765Z,20.50
2018-07-15T00:07:40.680Z,20.40
2018-07-15T00:10:09.613Z,20.40
2018-07-15T00:12:38.519Z,20.40
2018-07-15T00:15:07.587Z,20.30
2018-07-15T00:17:36.580Z,20.30
2018-07-15T00:20:05.976Z,20.30
2018-07-15T00:22:34.928Z,20.20
2018-07-15T00:25:03.864Z,20.20
2018-07-15T00:27:32.751Z,20.10
2018-07-15T00:30:01.928Z,20.10
2018-07-15T00:32:30.797Z,20.10
2018-07-15T00:34:59.721Z,20.00
2018-07-15T00:37:28.721Z,19.90
2018-07-15T00:39:57.595Z,20.00
2018-07-15T00:42:26.600Z,19.90
2018-07-15T00:44:55.696Z,19.90
2018-07-15T00:47:24.611Z,19.80
2018-07-15T00:49:53.696Z,19.90
2018-07-15T00:52:22.667Z,19.80
2018-07-15T00:54:51.603Z,19.80
2018-07-15T00:57:20.832Z,19.80
2018-07-15T00:59:49.751Z,19.80
2018-07-15T01:02:18.684Z,19.70
2018-07-15T01:04:47.588Z,19.70
2018-07-15T01:07:16.544Z,19.70
2018-07-15T01:09:45.548Z,19.70
2018-07-15T01:12:14.467Z,19.70
2018-07-15T01:14:43.363Z,19.70
2018-07-15T01:17:12.299Z,19.70
2018-07-15T01:19:42.224Z,19.70
2018-07-15T01:24:39.886Z,19.70
2018-07-15T01:27:08.788Z,19.70
2018-07-15T01:29:37.899Z,19.60
2018-07-15T01:32:06.823Z,19.60
2018-07-15T01:34:35.788Z,19.50
2018-07-15T01:37:04.704Z,19.50
2018-07-15T01:39:33.573Z,19.40
2018-07-15T01:42:02.472Z,19.40
2018-07-15T01:44:31.382Z,19.40
2018-07-15T01:47:00.323Z,19.40
2018-07-15T01:49:29.273Z,19.50
2018-07-15T01:51:58.184Z,19.50
2018-07-15T01:54:27.096Z,19.50
2018-07-15T01:56:56.085Z,19.50
2018-07-15T01:59:25.125Z,19.50
2018-07-15T02:01:54.029Z,19.50
2018-07-15T02:04:22.884Z,19.50
2018-07-15T02:06:51.759Z,19.50
2018-07-15T02:09:20.779Z,19.40
2018-07-15T02:11:49.699Z,19.40
2018-07-15T02:14:18.619Z,19.40
2018-07-15T02:16:47.591Z,19.20
2018-07-15T02:19:16.507Z,19.20
2018-07-15T02:21:46.448Z,19.20
2018-07-15T02:24:15.576Z,19.20
2018-07-15T02:26:44.504Z,19.20
2018-07-15T02:29:13.504Z,19.20
2018-07-15T02:31:42.427Z,19.20
2018-07-15T02:34:11.335Z,19.20
2018-07-15T02:36:40.331Z,19.30
2018-07-15T02:39:09.177Z,19.30
2018-07-15T02:41:38.209Z,19.40
2018-07-15T02:44:07.140Z,19.40
2018-07-15T02:46:36.034Z,19.40
2018-07-15T02:49:05.156Z,19.40
2018-07-15T02:51:34.071Z,19.30
2018-07-15T02:54:03.076Z,19.40
2018-07-15T02:56:32.163Z,19.30
2018-07-15T02:59:01.001Z,19.40
2018-07-15T03:01:29.910Z,19.50
2018-07-15T03:03:58.832Z,19.40
2018-07-15T03:08:56.688Z,19.30
2018-07-15T03:11:25.576Z,19.30
2018-07-15T03:13:54.549Z,19.40
2018-07-15T03:16:23.480Z,19.40
2018-07-15T03:18:52.392Z,19.30
2018-07-15T03:21:21.343Z,19.30
2018-07-15T03:23:50.296Z,19.20
2018-07-15T03:26:19.208Z,19.20
2018-07-15T03:28:48.125Z,19.20
2018-07-15T03:31:16.987Z,19.30
2018-07-15T03:33:46.001Z,19.20
2018-07-15T03:36:14.920Z,19.20
2018-07-15T03:38:43.811Z,19.20
2018-07-15T03:41:12.955Z,19.10
2018-07-15T03:43:41.822Z,19.10
2018-07-15T03:46:10.768Z,19.00
2018-07-15T03:48:39.705Z,19.00
2018-07-15T03:53:37.161Z,18.90
2018-07-15T03:58:34.496Z,19.10
2018-07-15T04:01:03.423Z,19.30
2018-07-15T04:03:32.364Z,19.50
2018-07-15T04:06:01.373Z,19.70
2018-07-15T04:08:30.258Z,19.90
2018-07-15T04:10:59.228Z,20.10
2018-07-15T04:13:28.131Z,20.40
2018-07-15T04:15:57.018Z,20.50
2018-07-15T04:18:26.036Z,20.60
2018-07-15T04:20:55.019Z,20.50
2018-07-15T04:23:23.945Z,20.50
2018-07-15T04:25:52.827Z,20.60
2018-07-15T04:28:21.809Z,20.70
2018-07-15T04:30:50.635Z,20.80
2018-07-15T04:33:19.735Z,21.00
2018-07-15T04:35:48.631Z,21.20
2018-07-15T04:38:17.557Z,21.40
2018-07-15T04:40:46.447Z,21.50
2018-07-15T04:43:15.348Z,21.70
2018-07-15T04:45:44.240Z,21.90
2018-07-15T04:50:41.991Z,22.30
2018-07-15T04:53:10.957Z,22.70
2018-07-15T04:55:39.868Z,22.90
2018-07-15T04:58:08.744Z,23.10
2018-07-15T05:00:37.636Z,23.10
2018-07-15T05:03:06.523Z,23.30
2018-07-15T05:05:35.484Z,23.50
2018-07-15T05:08:04.370Z,23.70
2018-07-15T05:10:33.411Z,24.00
2018-07-15T05:13:02.330Z,24.10
2018-07-15T05:15:31.310Z,24.40
2018-07-15T05:18:00.172Z,24.50
2018-07-15T05:20:29.055Z,24.60
2018-07-15T05:22:58.043Z,24.70
2018-07-15T05:25:26.953Z,24.80
2018-07-15T05:27:56.004Z,24.60
2018-07-15T05:30:25.012Z,24.50
2018-07-15T05:32:53.945Z,24.70
2018-07-15T05:35:23.143Z,24.90
2018-07-15T05:37:52.171Z,25.10
2018-07-15T05:40:21.139Z,25.40
2018-07-15T05:42:50.141Z,25.40
2018-07-15T05:45:19.121Z,25.30
2018-07-15T05:47:48.200Z,25.20
2018-07-15T05:50:17.120Z,25.10
2018-07-15T05:52:45.997Z,25.00
2018-07-15T05:55:14.864Z,25.00
2018-07-15T05:57:43.829Z,25.30
2018-07-15T06:00:12.733Z,25.30
2018-07-15T06:02:41.733Z,25.60
2018-07-15T06:05:10.784Z,25.70
2018-07-15T06:07:39.677Z,25.90
2018-07-15T06:10:09.599Z,26.20
2018-07-15T06:12:38.479Z,26.50
2018-07-15T06:15:07.526Z,26.80
2018-07-15T06:17:36.432Z,27.00
2018-07-15T06:20:06.435Z,27.10
2018-07-15T06:22:35.394Z,26.80
2018-07-15T06:25:04.930Z,26.60
2018-07-15T06:27:33.816Z,26.30
2018-07-15T06:30:02.743Z,26.30
2018-07-15T06:32:31.612Z,26.50
2018-07-15T06:35:00.540Z,26.50
2018-07-15T06:37:29.752Z,26.70
2018-07-15T06:39:58.642Z,26.50
2018-07-15T06:42:27.517Z,26.30
2018-07-15T06:44:56.446Z,26.30
2018-07-15T06:47:25.471Z,26.00
2018-07-15T06:49:54.409Z,26.00
2018-07-15T06:52:23.328Z,25.80
2018-07-15T06:54:52.196Z,25.90
2018-07-15T06:57:21.113Z,25.80
2018-07-15T06:59:49.975Z,25.70
2018-07-15T07:02:18.898Z,25.00
2018-07-15T07:04:47.827Z,25.00
2018-07-15T07:07:16.798Z,24.30
2018-07-15T07:09:45.889Z,24.00
2018-07-15T07:12:14.876Z,23.80
2018-07-15T07:14:43.765Z,23.70
2018-07-15T07:19:41.441Z,23.80
2018-07-15T07:22:10.349Z,23.80
2018-07-15T07:24:39.247Z,23.80
2018-07-15T07:27:08.233Z,23.80
2018-07-15T07:29:37.147Z,23.70
2018-07-15T07:32:06.326Z,23.80
2018-07-15T07:34:35.361Z,23.80
2018-07-15T07:37:04.350Z,23.80
2018-07-15T07:39:33.699Z,23.80
2018-07-15T07:42:02.582Z,23.70
2018-07-15T07:44:31.502Z,23.80
2018-07-15T07:47:00.611Z,23.80
2018-07-15T07:49:29.604Z,23.80
2018-07-15T07:51:58.498Z,23.90
2018-07-15T07:54:27.428Z,24.00
2018-07-15T07:56:56.394Z,24.00
2018-07-15T07:59:25.855Z,24.00
2018-07-15T08:01:55.104Z,24.00
2018-07-15T08:04:23.999Z,24.10
2018-07-15T08:06:52.915Z,24.10
2018-07-15T08:09:21.835Z,24.00
2018-07-15T08:11:50.735Z,24.10
2018-07-15T08:14:19.680Z,24.00
2018-07-15T08:16:49.048Z,24.00
2018-07-15T08:19:17.943Z,24.00
2018-07-15T08:21:46.875Z,24.10
2018-07-15T08:24:15.760Z,24.20
2018-07-15T08:26:44.669Z,24.30
2018-07-15T08:29:13.567Z,24.20
2018-07-15T08:31:42.476Z,24.30
2018-07-15T08:34:11.395Z,24.30
2018-07-15T08:36:40.264Z,24.40
2018-07-15T08:39:09.172Z,24.40
2018-07-15T08:41:38.260Z,24.40
2018-07-15T08:44:07.094Z,24.40
2018-07-15T08:46:36.102Z,24.60
2018-07-15T08:49:05.062Z,24.40
2018-07-15T08:51:34.140Z,24.40
2018-07-15T08:54:03.092Z,24.40
2018-07-15T08:56:32.121Z,24.60
2018-07-15T08:59:01.029Z,24.70
2018-07-15T09:01:30.041Z,24.80
2018-07-15T09:03:59.071Z,24.80
2018-07-15T09:06:27.919Z,24.80
2018-07-15T09:08:56.844Z,24.70
2018-07-15T09:11:25.772Z,24.80
2018-07-15T09:13:54.692Z,24.70
2018-07-15T09:16:23.636Z,24.80
2018-07-15T09:18:52.526Z,24.90
2018-07-15T09:21:21.893Z,25.00
2018-07-15T09:23:50.885Z,24.90
2018-07-15T09:26:19.787Z,25.00
2018-07-15T09:28:48.981Z,24.90
2018-07-15T09:31:17.865Z,25.10
2018-07-15T09:33:47.072Z,25.10
2018-07-15T09:36:16.005Z,25.20
2018-07-15T09:38:44.924Z,25.20
2018-07-15T09:41:13.928Z,25.30
2018-07-15T09:43:42.795Z,25.40
2018-07-15T09:46:12.408Z,25.40
2018-07-15T09:48:41.332Z,25.50
2018-07-15T09:51:10.275Z,25.50
2018-07-15T09:53:39.219Z,25.40
2018-07-15T09:58:36.560Z,25.50
2018-07-15T10:01:05.580Z,25.60
2018-07-15T10:03:34.453Z,25.70
2018-07-15T10:06:03.344Z,25.50
2018-07-15T10:08:32.201Z,25.50
2018-07-15T10:13:29.645Z,25.60
2018-07-15T10:15:58.624Z,25.80
2018-07-15T10:18:27.516Z,25.90
2018-07-15T10:23:24.985Z,26.10
2018-07-15T10:25:53.859Z,26.10
2018-07-15T10:28:22.783Z,26.10
2018-07-15T10:30:51.744Z,25.90
2018-07-15T10:33:20.668Z,26.00
2018-07-15T10:35:49.563Z,26.10
2018-07-15T10:38:18.466Z,26.20
2018-07-15T10:40:47.408Z,26.20
2018-07-15T10:43:16.521Z,26.20
2018-07-15T10:45:45.379Z,26.20
2018-07-15T10:48:14.400Z,26.20
2018-07-15T10:50:43.368Z,26.20
2018-07-15T10:53:12.355Z,26.30
2018-07-15T10:55:41.304Z,26.40
2018-07-15T10:58:10.190Z,26.50
2018-07-15T11:00:39.104Z,26.60
2018-07-15T11:03:08.259Z,26.50
2018-07-15T11:05:37.160Z,26.50
2018-07-15T11:10:34.531Z,26.50
2018-07-15T11:13:03.458Z,26.50
2018-07-15T11:15:32.393Z,26.50
2018-07-15T11:18:01.327Z,26.40
2018-07-15T11:20:30.237Z,26.50
2018-07-15T11:22:59.156Z,26.60
2018-07-15T11:25:28.128Z,26.50
2018-07-15T11:27:57.158Z,26.70
2018-07-15T11:30:26.108Z,26.80
2018-07-15T11:32:55.002Z,27.00
2018-07-15T11:35:23.955Z,27.10
2018-07-15T11:37:52.876Z,27.20
2018-07-15T11:40:21.969Z,27.20
2018-07-15T11:42:51.426Z,27.10
2018-07-15T11:45:20.400Z,26.90
2018-07-15T11:47:49.482Z,27.10
2018-07-15T11:52:46.976Z,27.10
2018-07-15T11:57:44.357Z,27.10
2018-07-15T12:00:13.289Z,27.20
2018-07-15T12:02:42.309Z,27.30
2018-07-15T12:05:11.247Z,27.20
2018-07-15T12:07:40.355Z,27.10
2018-07-15T12:10:09.277Z,27.10
2018-07-15T12:12:38.599Z,27.20
2018-07-15T12:15:08.791Z,27.30
2018-07-15T12:17:37.725Z,27.20
2018-07-15T12:20:06.684Z,27.50
2018-07-15T12:22:35.749Z,27.50
2018-07-15T12:25:04.964Z,27.60
2018-07-15T12:30:02.464Z,27.60
2018-07-15T12:32:31.387Z,27.50
2018-07-15T12:35:00.512Z,27.50
2018-07-15T12:37:29.584Z,27.60
2018-07-15T12:39:58.600Z,27.50
2018-07-15T12:42:27.796Z,27.50
2018-07-15T12:44:56.752Z,27.50
2018-07-15T12:47:25.780Z,27.50
2018-07-15T12:49:54.880Z,27.60
2018-07-15T12:52:23.860Z,27.80
2018-07-15T12:54:52.751Z,27.90
2018-07-15T12:57:21.840Z,27.80
2018-07-15T12:59:50.812Z,27.80
2018-07-15T13:02:19.847Z,27.90
2018-07-15T13:04:48.825Z,27.90
2018-07-15T13:07:17.776Z,28.00
2018-07-15T13:09:46.762Z,28.10
2018-07-15T13:12:15.706Z,28.00
2018-07-15T13:14:44.600Z,27.90
2018-07-15T13:17:13.651Z,28.00
2018-07-15T13:19:43.996Z,28.10
2018-07-15T13:22:12.884Z,28.10
2018-07-15T13:24:41.847Z,28.20
2018-07-15T13:27:10.896Z,28.20
2018-07-15T13:29:39.905Z,28.20
2018-07-15T13:32:08.788Z,28.20
2018-07-15T13:34:37.688Z,28.10
2018-07-15T13:37:06.616Z,28.30
2018-07-15T13:39:35.512Z,28.40
2018-07-15T13:42:04.688Z,28.60
2018-07-15T13:44:33.793Z,28.50
2018-07-15T13:47:02.747Z,28.60
2018-07-15T13:49:31.698Z,28.50
2018-07-15T13:52:01.459Z,28.50
2018-07-15T13:54:30.457Z,28.40
2018-07-15T13:56:59.385Z,28.50
2018-07-15T13:59:28.695Z,28.30
2018-07-15T14:01:57.757Z,28.30
2018-07-15T14:04:26.976Z,28.40
2018-07-15T14:06:55.957Z,28.50
2018-07-15T14:09:24.876Z,28.60
2018-07-15T14:11:53.764Z,28.40
2018-07-15T14:14:22.663Z,28.40
2018-07-15T14:16:51.609Z,28.40
2018-07-15T14:19:20.644Z,28.20
2018-07-15T14:21:49.633Z,28.20
2018-07-15T14:24:18.556Z,28.30
2018-07-15T14:26:47.701Z,28.50
2018-07-15T14:29:16.651Z,28.50
2018-07-15T14:31:45.733Z,28.60
2018-07-15T14:36:42.997Z,28.70
2018-07-15T14:39:12.046Z,28.70
2018-07-15T14:41:40.981Z,28.60
2018-07-15T14:44:10.044Z,28.70
2018-07-15T14:49:07.591Z,28.70
2018-07-15T14:51:36.814Z,28.70
2018-07-15T14:54:05.946Z,28.60
2018-07-15T14:56:34.882Z,28.60
2018-07-15T14:59:03.891Z,28.60
2018-07-15T15:01:32.837Z,28.60
2018-07-15T15:04:01.762Z,28.50
2018-07-15T15:06:31.583Z,28.50
2018-07-15T15:09:00.558Z,28.50
2018-07-15T15:11:29.581Z,28.50
2018-07-15T15:13:58.660Z,28.50
2018-07-15T15:16:27.615Z,28.50
2018-07-15T15:18:56.613Z,28.50
2018-07-15T15:21:26.602Z,28.50
2018-07-15T15:23:55.539Z,28.60
2018-07-15T15:26:24.476Z,28.60
2018-07-15T15:28:53.406Z,28.50
2018-07-15T15:31:22.703Z,28.60
2018-07-15T15:33:51.665Z,28.60
2018-07-15T15:36:20.508Z,28.50
2018-07-15T15:38:49.434Z,28.50
2018-07-15T15:41:18.427Z,28.50
2018-07-15T15:43:47.342Z,28.50
2018-07-15T15:46:16.220Z,28.50
2018-07-15T15:48:45.084Z,28.40
2018-07-15T15:53:42.417Z,28.30
2018-07-15T15:58:39.979Z,28.30
2018-07-15T16:01:08.988Z,28.30
2018-07-15T16:03:37.863Z,28.30
2018-07-15T16:06:07.258Z,28.30
2018-07-15T16:08:36.177Z,28.40
2018-07-15T16:11:06.176Z,28.30
2018-07-15T16:13:35.052Z,28.40
2018-07-15T16:16:03.988Z,28.20
2018-07-15T16:18:32.867Z,28.30
2018-07-15T16:21:01.791Z,28.30
2018-07-15T16:23:31.176Z,28.40
2018-07-15T16:26:00.080Z,28.30
2018-07-15T16:28:29.040Z,28.20
2018-07-15T16:30:58.621Z,28.20
2018-07-15T16:33:27.543Z,28.20
2018-07-15T16:35:56.460Z,28.20
2018-07-15T16:38:25.600Z,28.20
2018-07-15T16:40:54.474Z,28.20
2018-07-15T16:43:23.485Z,28.20
2018-07-15T16:45:52.339Z,28.10
2018-07-15T16:48:21.401Z,28.10
2018-07-15T16:50:50.347Z,28.10
2018-07-15T16:53:19.313Z,28.20
2018-07-15T16:55:48.236Z,28.10
2018-07-15T16:58:17.383Z,28.10
2018-07-15T17:03:15.704Z,28.20
2018-07-15T17:05:44.468Z,28.20
2018-07-15T17:08:13.385Z,28.20
2018-07-15T17:10:42.401Z,28.10
2018-07-15T17:13:11.390Z,28.10
2018-07-15T17:15:40.386Z,28.00
2018-07-15T17:18:09.489Z,27.90
2018-07-15T17:20:38.490Z,27.90
2018-07-15T17:23:07.504Z,27.90
2018-07-15T17:25:36.547Z,27.80
2018-07-15T17:28:05.435Z,27.80
2018-07-15T17:30:34.301Z,27.80
2018-07-15T17:33:03.548Z,27.90
2018-07-15T17:35:32.577Z,27.80
2018-07-15T17:40:29.937Z,27.80
2018-07-15T17:42:59.028Z,27.80
2018-07-15T17:45:27.929Z,27.80
2018-07-15T17:47:56.901Z,27.80
2018-07-15T17:50:25.818Z,27.80
2018-07-15T17:52:54.667Z,27.80
2018-07-15T17:55:23.634Z,27.70
2018-07-15T17:57:52.592Z,27.70
2018-07-15T18:00:21.668Z,27.70
2018-07-15T18:02:50.620Z,27.70
2018-07-15T18:05:19.473Z,27.70
2018-07-15T18:07:48.395Z,27.60
2018-07-15T18:10:17.343Z,27.60
2018-07-15T18:12:46.253Z,27.50
2018-07-15T18:15:15.199Z,27.50
2018-07-15T18:17:44.136Z,27.50
2018-07-15T18:20:13.070Z,27.50
2018-07-15T18:22:42.006Z,27.50
2018-07-15T18:25:11.041Z,27.50
2018-07-15T18:27:40.004Z,27.50
2018-07-15T18:30:09.522Z,27.50
2018-07-15T18:32:38.711Z,27.50
2018-07-15T18:35:07.835Z,27.50
2018-07-15T18:37:36.826Z,27.40
2018-07-15T18:40:05.892Z,27.40
2018-07-15T18:42:35.349Z,27.40
2018-07-15T18:45:04.769Z,27.40
2018-07-15T18:47:33.687Z,27.30
2018-07-15T18:50:02.699Z,27.30
2018-07-15T18:52:31.624Z,27.20
2018-07-15T18:55:00.552Z,27.20
2018-07-15T18:57:29.485Z,27.10
2018-07-15T19:02:26.793Z,27.00
2018-07-15T19:04:55.904Z,26.90
2018-07-15T19:07:24.774Z,26.80
2018-07-15T19:09:54.041Z,26.60
2018-07-15T19:12:23.026Z,26.60
2018-07-15T19:14:51.877Z,26.50
2018-07-15T19:17:20.872Z,26.50
2018-07-15T19:19:50.304Z,26.40
2018-07-15T19:22:19.241Z,26.40
2018-07-15T19:24:48.200Z,26.30
2018-07-15T19:27:17.158Z,26.20
2018-07-15T19:29:46.107Z,26.10
2018-07-15T19:32:15.104Z,26.10
2018-07-15T19:34:43.931Z,26.00
2018-07-15T19:37:12.870Z,25.90
2018-07-15T19:39:41.827Z,25.80
2018-07-15T19:44:39.329Z,25.70
2018-07-15T19:49:36.793Z,25.50
2018-07-15T19:52:05.743Z,25.50
2018-07-15T19:54:34.691Z,25.30
2018-07-15T19:57:03.573Z,25.30
2018-07-15T19:59:32.517Z,25.30
2018-07-15T20:02:01.518Z,25.20
2018-07-15T20:04:30.436Z,25.10
2018-07-15T20:06:59.360Z,25.10
2018-07-15T20:09:28.251Z,25.00
2018-07-15T20:11:57.170Z,25.00
2018-07-15T20:14:26.339Z,24.90
2018-07-15T20:16:55.184Z,24.90
2018-07-15T20:19:24.834Z,24.90
2018-07-15T20:21:53.857Z,24.80
2018-07-15T20:24:22.742Z,24.80
2018-07-15T20:26:51.724Z,24.80
2018-07-15T20:29:20.623Z,24.70
2018-07-15T20:31:49.553Z,24.60
2018-07-15T20:34:18.426Z,24.60
2018-07-15T20:36:47.429Z,24.50
2018-07-15T20:39:16.535Z,24.40
2018-07-15T20:44:14.041Z,24.30
2018-07-15T20:46:43.102Z,24.30
2018-07-15T20:49:12.032Z,24.20
2018-07-15T20:51:40.933Z,24.20
2018-07-15T20:56:38.347Z,24.10
2018-07-15T20:59:07.194Z,24.10
2018-07-15T21:01:36.188Z,24.00
2018-07-15T21:04:05.575Z,23.90
2018-07-15T21:06:34.701Z,23.90
2018-07-15T21:09:04.602Z,23.80
2018-07-15T21:11:33.785Z,23.70
2018-07-15T21:14:02.639Z,23.70
2018-07-15T21:16:31.556Z,23.70
2018-07-15T21:19:00.459Z,23.60
2018-07-15T21:21:29.452Z,23.60
2018-07-15T21:23:58.452Z,23.50
2018-07-15T21:26:27.529Z,23.40
2018-07-15T21:28:56.417Z,23.30
2018-07-15T21:31:25.337Z,23.30
2018-07-15T21:33:54.248Z,23.20
2018-07-15T21:36:23.185Z,23.20
2018-07-15T21:38:52.136Z,23.10
2018-07-15T21:41:21.652Z,23.00
2018-07-15T21:43:50.612Z,23.00
2018-07-15T21:46:19.535Z,22.90
2018-07-15T21:48:48.452Z,22.80
2018-07-15T21:51:17.441Z,22.70
2018-07-15T21:53:46.255Z,22.70
2018-07-15T21:56:15.221Z,22.70
2018-07-15T21:58:44.076Z,22.70
2018-07-15T22:01:12.940Z,22.60
2018-07-15T22:03:41.876Z,22.60
2018-07-15T22:06:21.868Z,22.60
2018-07-15T22:09:01.897Z,22.50
2018-07-15T22:11:31.083Z,22.50
2018-07-15T22:14:00.030Z,22.40
2018-07-15T22:16:28.941Z,22.40
2018-07-15T22:18:57.961Z,22.30
2018-07-15T22:21:26.897Z,22.30
2018-07-15T22:23:55.857Z,22.30
2018-07-15T22:26:24.736Z,22.20
2018-07-15T22:28:53.625Z,22.20
2018-07-15T22:31:22.623Z,22.30
2018-07-15T22:33:51.687Z,22.20
2018-07-15T22:36:20.617Z,22.20
2018-07-15T22:38:49.547Z,22.20
2018-07-15T22:41:18.485Z,22.20
2018-07-15T22:43:47.375Z,22.10
2018-07-15T22:46:16.460Z,22.10
2018-07-15T22:48:45.388Z,22.10
2018-07-15T22:51:14.263Z,22.10
2018-07-15T22:53:43.215Z,22.10
2018-07-15T22:56:12.247Z,22.10
2018-07-15T22:58:41.132Z,22.10
2018-07-15T23:01:10.129Z,22.00
2018-07-15T23:03:39.166Z,21.90
2018-07-15T23:06:16.378Z,21.90
2018-07-15T23:08:45.277Z,21.90
2018-07-15T23:11:14.276Z,21.80
2018-07-15T23:16:11.624Z,21.80
2018-07-15T23:18:40.596Z,21.70
2018-07-15T23:21:09.444Z,21.60
2018-07-15T23:23:38.356Z,21.60
2018-07-15T23:26:07.254Z,21.70
2018-07-15T23:28:36.600Z,21.60
2018-07-15T23:31:05.585Z,21.60
2018-07-15T23:33:34.576Z,21.70
2018-07-15T23:36:03.486Z,21.70
2018-07-15T23:38:32.468Z,21.70
2018-07-15T23:41:01.460Z,21.70
2018-07-15T23:43:30.403Z,21.70
2018-07-15T23:45:59.401Z,21.70
2018-07-15T23:48:28.259Z,21.70
2018-07-15T23:50:57.172Z,21.60
2018-07-15T23:53:26.046Z,21.60
2018-07-15T23:55:54.909Z,21.60
2018-07-15T23:58:23.818Z,21.50
